Antrim, United Kingdom
Current Conditions -  °F | °C
As of 6:50 PM on Thursday 30 Oct 2014 (Local Time) from EGAA Reporting Station
Scattered Clouds Scattered Clouds  
Wind Chill: 59°   Ceiling: Unl
Heat Index: 59°   Visibility: 6mi
Dew Point: 55°   Wind: 9mph
Humidity: 88%   Direction: 170°S
Pressure: 29.8"   Gusts: NA
Location:  54.7°N, 6.2°W
Report Text: EGAA 301850Z 17008KT 9999 SCT027 15/13 Q1009
Loading
Personal Weather Stations






























Interactive Weather Map
Tropical Storm Tracking
New forecast layout! Learn more

10-Day Weather Forecast

Advertisements
Track Severe Weather on mobile